Aeroporto :
LOGIN :

Iscrizione | Disclaimer

   EN    FR    IT 

 










Sommario :    VFR   VFR Marginale   IFR   IFR Intensivo   IFR Molto Intensivo
Visibilità : 
Base nubi : 
>= 8 km
>= 3000ft
5 / 8 km
1000 / 3000 ft
1500m / 5 km
500 / 1000 ft
800 / 1500m
200 / 500 ft
< 800m
< 200 ft
Simboli :   Temporali  Nebbia  Neve Forte  Precipitazioni Forti  Vento > 20 kt
SIGMETs :   Varie  Temporali  Ghiacco  Turbolenza  Onda orograficha  Ceneri Vulcaniche






- Altitudine del aeroporto : 1020 ft
- Codice IATA : ILZ


LZZI - Žilina

ULTIMO METAR :
  • 280030Z 10006KT 060V120 9999 -SN OVC020 01/M01 Q0998

METARs OBSOLETI :
  • 280000Z 10008KT 9999 -SN OVC033 02/M02 Q0998
  • 272330Z 14006KT 100V190 9999 -SN NSC 02/M02 Q0998
  • 272300Z 15005KT 070V220 9999 -SN BKN057 OVC084 03/M04 Q0998
  • 272230Z 11003KT 080V160 CAVOK 02/M03 Q0998
  • 272200Z 08004KT CAVOK M00/M02 Q0998

TAF TAF LZZI
Valido dal 28 a 00 ore il 28 a 09 ore UTC


272300Z 2800/2809 12005KT 9999 BKN040 BKN060
TEMPO 2800/2803 4000 -SN SCT004 BKN013 OVC020
TEMPO 2803/2809 1300 SN BKN007 OVC012



MetMap, La meteo Aeronautica in un colpo d'occhio ! - Copyright ORBIFLY Dicembre 2007 - Disclaimer

ORBIFLY MET'MAP TEAM :

Programmazione e sviluppo : Alexandra Zaïnal
Concezione : Baudouin d'Aumeries
Aiuto per la programmazione : Marc-Olivier Méhu
Supporto tecnico e logistico : Manuel Goepfert
Aiuto per la traduzione : Arnaldo La Scala

Contatto : metmap@orbifly.com




FONTI E CREDITI :

   NOAA